sensor_id;sensor_type;location;lat;lon;timestamp;pressure;altitude;pressure_sealevel;temperature;humidity
4972;BME280;2501;51.214;6.768;2023-07-28T00:01:43;100276.28;;;17.48;100.00
4972;BME280;2501;51.214;6.768;2023-07-28T00:04:12;100279.41;;;17.31;100.00
4972;BME280;2501;51.214;6.768;2023-07-28T00:06:40;100278.94;;;17.48;100.00
4972;BME280;2501;51.214;6.768;2023-07-28T00:09:09;100278.41;;;17.35;100.00
4972;BME280;2501;51.214;6.768;2023-07-28T00:11:37;100270.22;;;17.43;100.00
4972;BME280;2501;51.214;6.768;2023-07-28T00:14:05;100270.63;;;17.59;100.00
4972;BME280;2501;51.214;6.768;2023-07-28T00:16:36;100268.38;;;17.76;100.00
4972;BME280;2501;51.214;6.768;2023-07-28T00:19:05;100266.72;;;17.72;100.00
4972;BME280;2501;51.214;6.768;2023-07-28T00:21:33;100270.69;;;17.57;100.00
4972;BME280;2501;51.214;6.768;2023-07-28T00:24:02;100261.19;;;17.80;100.00
4972;BME280;2501;51.214;6.768;2023-07-28T00:26:30;100272.69;;;17.49;100.00
4972;BME280;2501;51.214;6.768;2023-07-28T00:28:59;100264.97;;;17.42;100.00
4972;BME280;2501;51.214;6.768;2023-07-28T00:31:30;100264.94;;;17.43;100.00
4972;BME280;2501;51.214;6.768;2023-07-28T00:33:59;100270.03;;;17.49;100.00
4972;BME280;2501;51.214;6.768;2023-07-28T00:36:28;100263.28;;;17.39;100.00
4972;BME280;2501;51.214;6.768;2023-07-28T00:38:56;100264.50;;;17.27;100.00
4972;BME280;2501;51.214;6.768;2023-07-28T00:41:25;100263.28;;;17.39;100.00
4972;BME280;2501;51.214;6.768;2023-07-28T00:43:53;100266.66;;;17.44;100.00
4972;BME280;2501;51.214;6.768;2023-07-28T00:46:22;100266.63;;;17.46;100.00
4972;BME280;2501;51.214;6.768;2023-07-28T00:48:51;100267.78;;;17.35;100.00
4972;BME280;2501;51.214;6.768;2023-07-28T00:51:22;100263.66;;;17.27;100.00
4972;BME280;2501;51.214;6.768;2023-07-28T00:53:51;100261.66;;;17.33;100.00
4972;BME280;2501;51.214;6.768;2023-07-28T00:56:20;100257.81;;;17.45;100.00
4972;BME280;2501;51.214;6.768;2023-07-28T00:58:49;100254.63;;;17.32;100.00
4972;BME280;2501;51.214;6.768;2023-07-28T01:01:19;100256.78;;;17.20;100.00
4972;BME280;2501;51.214;6.768;2023-07-28T01:03:48;100259.47;;;17.18;100.00
4972;BME280;2501;51.214;6.768;2023-07-28T01:06:25;100261.66;;;17.33;100.00
4972;BME280;2501;51.214;6.768;2023-07-28T01:08:58;100263.91;;;17.18;100.00
4972;BME280;2501;51.214;6.768;2023-07-28T01:11:29;100265.00;;;17.11;100.00
4972;BME280;2501;51.214;6.768;2023-07-28T01:13:58;100263.38;;;17.05;100.00
4972;BME280;2501;51.214;6.768;2023-07-28T01:16:26;100262.44;;;17.08;100.00
4972;BME280;2501;51.214;6.768;2023-07-28T01:18:55;100265.44;;;16.95;100.00
4972;BME280;2501;51.214;6.768;2023-07-28T01:21:29;100266.63;;;17.15;100.00
4972;BME280;2501;51.214;6.768;2023-07-28T01:24:12;100265.78;;;17.14;100.00
4972;BME280;2501;51.214;6.768;2023-07-28T01:26:47;100263.84;;;17.19;100.00
4972;BME280;2501;51.214;6.768;2023-07-28T01:29:17;100259.69;;;17.11;100.00
4972;BME280;2501;51.214;6.768;2023-07-28T01:31:46;100258.75;;;17.13;100.00
4972;BME280;2501;51.214;6.768;2023-07-28T01:34:15;100263.66;;;16.96;100.00
4972;BME280;2501;51.214;6.768;2023-07-28T01:36:44;100261.31;;;17.15;100.00
4972;BME280;2501;51.214;6.768;2023-07-28T01:39:12;100260.72;;;17.05;100.00
4972;BME280;2501;51.214;6.768;2023-07-28T01:41:40;100266.00;;;17.07;100.00
4972;BME280;2501;51.214;6.768;2023-07-28T01:44:12;100258.16;;;17.02;100.00
4972;BME280;2501;51.214;6.768;2023-07-28T01:46:40;100260.78;;;17.03;100.00
4972;BME280;2501;51.214;6.768;2023-07-28T01:49:09;100269.97;;;16.90;100.00
4972;BME280;2501;51.214;6.768;2023-07-28T01:51:37;100262.47;;;17.06;100.00
4972;BME280;2501;51.214;6.768;2023-07-28T01:54:06;100260.66;;;17.08;100.00
4972;BME280;2501;51.214;6.768;2023-07-28T01:56:34;100256.66;;;16.93;100.00
4972;BME280;2501;51.214;6.768;2023-07-28T01:59:02;100260.25;;;16.91;100.00
4972;BME280;2501;51.214;6.768;2023-07-28T02:01:34;100266.34;;;16.94;100.00
4972;BME280;2501;51.214;6.768;2023-07-28T02:04:03;100253.38;;;16.84;100.00
4972;BME280;2501;51.214;6.768;2023-07-28T02:06:31;100254.28;;;16.83;100.00
4972;BME280;2501;51.214;6.768;2023-07-28T02:09:00;100252.28;;;16.92;100.00
4972;BME280;2501;51.214;6.768;2023-07-28T02:11:28;100250.34;;;16.97;100.00
4972;BME280;2501;51.214;6.768;2023-07-28T02:13:57;100253.66;;;16.75;100.00
4972;BME280;2501;51.214;6.768;2023-07-28T02:16:26;100260.75;;;16.73;100.00
4972;BME280;2501;51.214;6.768;2023-07-28T02:18:58;100260.84;;;16.69;100.00
4972;BME280;2501;51.214;6.768;2023-07-28T02:21:27;100254.31;;;16.81;100.00
4972;BME280;2501;51.214;6.768;2023-07-28T02:23:55;100264.28;;;16.73;100.00
4972;BME280;2501;51.214;6.768;2023-07-28T02:26:24;100267.88;;;16.70;100.00
4972;BME280;2501;51.214;6.768;2023-07-28T02:28:52;100265.06;;;16.77;100.00
4972;BME280;2501;51.214;6.768;2023-07-28T02:31:21;100262.63;;;16.69;100.00
4972;BME280;2501;51.214;6.768;2023-07-28T02:33:49;100264.31;;;16.72;100.00
4972;BME280;2501;51.214;6.768;2023-07-28T02:36:20;100262.69;;;16.66;100.00
4972;BME280;2501;51.214;6.768;2023-07-28T02:38:49;100264.44;;;16.67;100.00
4972;BME280;2501;51.214;6.768;2023-07-28T02:41:17;100268.72;;;16.73;100.00
4972;BME280;2501;51.214;6.768;2023-07-28T02:43:45;100270.63;;;16.66;100.00
4972;BME280;2501;51.214;6.768;2023-07-28T02:46:14;100268.91;;;16.65;100.00
4972;BME280;2501;51.214;6.768;2023-07-28T02:48:42;100268.72;;;16.73;100.00
4972;BME280;2501;51.214;6.768;2023-07-28T02:51:11;100265.34;;;16.66;100.00
4972;BME280;2501;51.214;6.768;2023-07-28T02:53:42;100270.03;;;16.89;100.00
4972;BME280;2501;51.214;6.768;2023-07-28T02:56:10;100271.19;;;16.79;100.00
4972;BME280;2501;51.214;6.768;2023-07-28T02:58:38;100282.78;;;16.75;100.00
4972;BME280;2501;51.214;6.768;2023-07-28T03:01:07;100286.00;;;16.86;100.00
4972;BME280;2501;51.214;6.768;2023-07-28T03:03:35;100278.47;;;16.70;100.00
4972;BME280;2501;51.214;6.768;2023-07-28T03:06:04;100281.97;;;16.71;100.00
4972;BME280;2501;51.214;6.768;2023-07-28T03:08:32;100281.94;;;16.73;100.00
4972;BME280;2501;51.214;6.768;2023-07-28T03:11:04;100285.44;;;16.75;100.00
4972;BME280;2501;51.214;6.768;2023-07-28T03:13:32;100278.91;;;16.86;100.00
4972;BME280;2501;51.214;6.768;2023-07-28T03:16:00;100290.38;;;16.87;100.00
4972;BME280;2501;51.214;6.768;2023-07-28T03:18:29;100286.03;;;16.84;100.00
4972;BME280;2501;51.214;6.768;2023-07-28T03:20:57;100287.72;;;16.87;100.00
4972;BME280;2501;51.214;6.768;2023-07-28T03:23:25;100290.34;;;16.88;100.00
4972;BME280;2501;51.214;6.768;2023-07-28T03:25:54;100291.34;;;16.84;100.00
4972;BME280;2501;51.214;6.768;2023-07-28T03:28:25;100285.25;;;16.81;100.00
4972;BME280;2501;51.214;6.768;2023-07-28T03:30:53;100285.91;;;16.89;100.00
4972;BME280;2501;51.214;6.768;2023-07-28T03:33:22;100282.75;;;16.76;100.00
4972;BME280;2501;51.214;6.768;2023-07-28T03:35:50;100288.13;;;16.73;100.00
4972;BME280;2501;51.214;6.768;2023-07-28T03:38:19;100289.66;;;16.80;100.00
4972;BME280;2501;51.214;6.768;2023-07-28T03:40:47;100283.56;;;16.78;100.00
4972;BME280;2501;51.214;6.768;2023-07-28T03:43:16;100284.56;;;16.74;100.00
4972;BME280;2501;51.214;6.768;2023-07-28T03:45:47;100287.09;;;16.79;100.00
4972;BME280;2501;51.214;6.768;2023-07-28T03:48:15;100289.59;;;16.83;100.00
4972;BME280;2501;51.214;6.768;2023-07-28T03:50:44;100291.56;;;16.77;100.00
4972;BME280;2501;51.214;6.768;2023-07-28T03:53:12;100297.53;;;16.83;100.00
4972;BME280;2501;51.214;6.768;2023-07-28T03:55:40;100300.44;;;16.74;100.00
4972;BME280;2501;51.214;6.768;2023-07-28T03:58:09;100302.19;;;16.75;100.00
4972;BME280;2501;51.214;6.768;2023-07-28T04:00:37;100303.88;;;16.78;100.00
4972;BME280;2501;51.214;6.768;2023-07-28T04:03:08;100296.94;;;16.74;100.00
4972;BME280;2501;51.214;6.768;2023-07-28T04:05:37;100305.38;;;16.88;100.00
4972;BME280;2501;51.214;6.768;2023-07-28T04:08:05;100297.56;;;16.82;100.00
4972;BME280;2501;51.214;6.768;2023-07-28T04:10:33;100296.66;;;16.83;100.00
4972;BME280;2501;51.214;6.768;2023-07-28T04:13:02;100295.06;;;16.77;100.00
4972;BME280;2501;51.214;6.768;2023-07-28T04:15:30;100295.50;;;16.94;100.00
4972;BME280;2501;51.214;6.768;2023-07-28T04:17:58;100296.63;;;16.84;100.00
4972;BME280;2501;51.214;6.768;2023-07-28T04:20:29;100296.66;;;16.83;100.00
4972;BME280;2501;51.214;6.768;2023-07-28T04:22:58;100297.41;;;16.88;100.00
4972;BME280;2501;51.214;6.768;2023-07-28T04:25:26;100295.09;;;17.08;100.00
4972;BME280;2501;51.214;6.768;2023-07-28T04:27:55;100290.91;;;16.99;100.00
4972;BME280;2501;51.214;6.768;2023-07-28T04:30:24;100298.22;;;16.91;100.00
4972;BME280;2501;51.214;6.768;2023-07-28T04:32:52;100304.94;;;17.03;100.00
4972;BME280;2501;51.214;6.768;2023-07-28T04:35:21;100302.38;;;17.00;100.00
4972;BME280;2501;51.214;6.768;2023-07-28T04:37:52;100306.34;;;17.16;100.00
4972;BME280;2501;51.214;6.768;2023-07-28T04:40:20;100310.97;;;17.10;100.00
4972;BME280;2501;51.214;6.768;2023-07-28T04:42:48;100308.31;;;17.10;100.00
4972;BME280;2501;51.214;6.768;2023-07-28T04:45:19;100305.09;;;17.29;100.00
4972;BME280;2501;51.214;6.768;2023-07-28T04:47:47;100308.00;;;17.20;100.00
4972;BME280;2501;51.214;6.768;2023-07-28T04:50:16;100302.81;;;17.16;100.00
4972;BME280;2501;51.214;6.768;2023-07-28T04:52:44;100303.44;;;17.25;100.00
4972;BME280;2501;51.214;6.768;2023-07-28T04:55:15;100310.06;;;17.40;100.00
4972;BME280;2501;51.214;6.768;2023-07-28T04:57:44;100306.97;;;17.26;100.00
4972;BME280;2501;51.214;6.768;2023-07-28T05:00:13;100309.41;;;17.63;100.00
4972;BME280;2501;51.214;6.768;2023-07-28T05:02:42;100315.50;;;17.35;100.00
4972;BME280;2501;51.214;6.768;2023-07-28T05:05:10;100319.84;;;17.38;100.00
4972;BME280;2501;51.214;6.768;2023-07-28T05:07:39;100313.97;;;17.58;100.00
4972;BME280;2501;51.214;6.768;2023-07-28T05:10:05;100317.59;;;17.85;100.00
4972;BME280;2501;51.214;6.768;2023-07-28T05:12:37;100316.28;;;17.70;100.00
4972;BME280;2501;51.214;6.768;2023-07-28T05:15:06;100317.50;;;17.58;100.00
4972;BME280;2501;51.214;6.768;2023-07-28T05:17:36;100323.34;;;17.40;100.00
4972;BME280;2501;51.214;6.768;2023-07-28T05:20:05;100328.75;;;17.35;100.00
4972;BME280;2501;51.214;6.768;2023-07-28T05:22:34;100333.66;;;17.49;100.00
4972;BME280;2501;51.214;6.768;2023-07-28T05:25:30;100334.94;;;17.96;100.00
4972;BME280;2501;51.214;6.768;2023-07-28T05:28:06;100339.59;;;17.88;100.00
4972;BME280;2501;51.214;6.768;2023-07-28T05:30:34;100335.22;;;17.87;100.00
4972;BME280;2501;51.214;6.768;2023-07-28T05:33:03;100339.25;;;17.71;100.00
4972;BME280;2501;51.214;6.768;2023-07-28T05:35:31;100338.53;;;17.66;100.00
4972;BME280;2501;51.214;6.768;2023-07-28T05:37:59;100344.75;;;17.65;100.00
4972;BME280;2501;51.214;6.768;2023-07-28T05:40:31;100344.19;;;17.83;100.00
4972;BME280;2501;51.214;6.768;2023-07-28T05:42:59;100355.81;;;17.79;100.00
4972;BME280;2501;51.214;6.768;2023-07-28T05:45:31;100348.19;;;18.24;100.00
4972;BME280;2501;51.214;6.768;2023-07-28T05:47:59;100350.34;;;18.13;100.00
4972;BME280;2501;51.214;6.768;2023-07-28T05:50:27;100355.78;;;18.08;100.00
4972;BME280;2501;51.214;6.768;2023-07-28T05:52:56;100351.31;;;18.11;100.00
4972;BME280;2501;51.214;6.768;2023-07-28T05:55:24;100365.00;;;17.97;100.00
4972;BME280;2501;51.214;6.768;2023-07-28T05:57:53;100356.38;;;18.18;100.00
4972;BME280;2501;51.214;6.768;2023-07-28T06:00:21;100359.94;;;18.17;100.00
4972;BME280;2501;51.214;6.768;2023-07-28T06:02:52;100365.63;;;18.05;100.00
4972;BME280;2501;51.214;6.768;2023-07-28T06:05:20;100364.91;;;18.28;100.00
4972;BME280;2501;51.214;6.768;2023-07-28T06:07:49;100363.69;;;18.10;100.00
4972;BME280;2501;51.214;6.768;2023-07-28T06:10:17;100371.66;;;18.10;100.00
4972;BME280;2501;51.214;6.768;2023-07-28T06:12:46;100367.06;;;18.43;100.00
4972;BME280;2501;51.214;6.768;2023-07-28T06:15:14;100365.22;;;18.45;100.00
4972;BME280;2501;51.214;6.768;2023-07-28T06:17:43;100367.34;;;18.35;100.00
4972;BME280;2501;51.214;6.768;2023-07-28T06:20:14;100371.09;;;18.55;100.00
4972;BME280;2501;51.214;6.768;2023-07-28T06:22:42;100365.31;;;18.42;100.00
4972;BME280;2501;51.214;6.768;2023-07-28T06:25:11;100371.16;;;18.53;100.00
4972;BME280;2501;51.214;6.768;2023-07-28T06:27:39;100373.97;;;18.49;100.00
4972;BME280;2501;51.214;6.768;2023-07-28T06:30:09;100383.13;;;18.68;100.00
4972;BME280;2501;51.214;6.768;2023-07-28T06:32:37;100385.13;;;18.60;100.00
4972;BME280;2501;51.214;6.768;2023-07-28T06:35:07;100384.78;;;18.70;100.00
4972;BME280;2501;51.214;6.768;2023-07-28T06:37:38;100382.59;;;18.55;100.00
4972;BME280;2501;51.214;6.768;2023-07-28T06:40:07;100395.81;;;18.57;100.00
4972;BME280;2501;51.214;6.768;2023-07-28T06:42:36;100394.81;;;18.62;100.00
4972;BME280;2501;51.214;6.768;2023-07-28T06:45:06;100394.09;;;18.56;100.00
4972;BME280;2501;51.214;6.768;2023-07-28T06:47:34;100391.88;;;18.42;100.00
4972;BME280;2501;51.214;6.768;2023-07-28T06:50:03;100402.50;;;18.42;100.00
4972;BME280;2501;51.214;6.768;2023-07-28T06:52:32;100408.22;;;18.56;100.00
4972;BME280;2501;51.214;6.768;2023-07-28T06:55:03;100403.13;;;18.50;100.00
4972;BME280;2501;51.214;6.768;2023-07-28T06:57:31;100397.88;;;18.49;100.00
4972;BME280;2501;51.214;6.768;2023-07-28T07:00:00;100412.28;;;18.69;100.00
4972;BME280;2501;51.214;6.768;2023-07-28T07:02:29;100416.00;;;18.64;100.00
4972;BME280;2501;51.214;6.768;2023-07-28T07:04:57;100424.00;;;18.62;100.00
4972;BME280;2501;51.214;6.768;2023-07-28T07:07:26;100416.50;;;18.75;100.00
4972;BME280;2501;51.214;6.768;2023-07-28T07:09:54;100421.47;;;18.58;100.00
4972;BME280;2501;51.214;6.768;2023-07-28T07:12:25;100426.44;;;18.96;100.00
4972;BME280;2501;51.214;6.768;2023-07-28T07:14:54;100422.34;;;18.86;100.00
4972;BME280;2501;51.214;6.768;2023-07-28T07:17:22;100425.59;;;18.94;100.00
4972;BME280;2501;51.214;6.768;2023-07-28T07:19:51;100429.03;;;18.98;100.00
4972;BME280;2501;51.214;6.768;2023-07-28T07:22:19;100424.84;;;18.64;100.00
4972;BME280;2501;51.214;6.768;2023-07-28T07:24:47;100435.66;;;19.11;100.00
4972;BME280;2501;51.214;6.768;2023-07-28T07:27:16;100431.47;;;19.30;100.00
4972;BME280;2501;51.214;6.768;2023-07-28T07:29:47;100424.53;;;19.00;100.00
4972;BME280;2501;51.214;6.768;2023-07-28T07:32:15;100428.19;;;19.22;100.00
4972;BME280;2501;51.214;6.768;2023-07-28T07:34:44;100425.13;;;19.34;100.00
4972;BME280;2501;51.214;6.768;2023-07-28T07:37:12;100429.94;;;19.48;100.00
4972;BME280;2501;51.214;6.768;2023-07-28T07:39:41;100435.19;;;19.25;100.00
4972;BME280;2501;51.214;6.768;2023-07-28T07:42:10;100441.38;;;19.25;100.00
4972;BME280;2501;51.214;6.768;2023-07-28T07:44:40;100439.66;;;19.49;100.00
4972;BME280;2501;51.214;6.768;2023-07-28T07:47:15;100438.31;;;19.62;100.00
4972;BME280;2501;51.214;6.768;2023-07-28T07:49:43;100435.59;;;19.64;100.00
4972;BME280;2501;51.214;6.768;2023-07-28T07:52:12;100443.13;;;19.53;100.00
4972;BME280;2501;51.214;6.768;2023-07-28T07:54:40;100440.31;;;19.80;100.00
4972;BME280;2501;51.214;6.768;2023-07-28T07:57:09;100446.16;;;19.67;100.00
4972;BME280;2501;51.214;6.768;2023-07-28T07:59:37;100449.31;;;19.76;100.00
4972;BME280;2501;51.214;6.768;2023-07-28T08:02:06;100453.66;;;19.56;100.00
4972;BME280;2501;51.214;6.768;2023-07-28T08:04:37;100449.38;;;19.75;100.00
4972;BME280;2501;51.214;6.768;2023-07-28T08:07:06;100445.81;;;19.99;100.00
4972;BME280;2501;51.214;6.768;2023-07-28T08:09:38;100458.56;;;19.91;100.00
4972;BME280;2501;51.214;6.768;2023-07-28T08:12:08;100454.16;;;19.90;100.00
4972;BME280;2501;51.214;6.768;2023-07-28T08:14:37;100457.34;;;19.75;100.00
4972;BME280;2501;51.214;6.768;2023-07-28T08:17:05;100458.53;;;19.41;100.00
4972;BME280;2501;51.214;6.768;2023-07-28T08:19:34;100453.91;;;19.73;100.00
4972;BME280;2501;51.214;6.768;2023-07-28T08:22:05;100466.47;;;19.93;100.00
4972;BME280;2501;51.214;6.768;2023-07-28T08:24:33;100465.16;;;19.56;100.00
4972;BME280;2501;51.214;6.768;2023-07-28T08:27:02;100464.28;;;19.29;100.00
4972;BME280;2501;51.214;6.768;2023-07-28T08:29:30;100464.06;;;19.62;100.00
4972;BME280;2501;51.214;6.768;2023-07-28T08:31:59;100469.16;;;19.68;100.00
4972;BME280;2501;51.214;6.768;2023-07-28T08:34:27;100459.31;;;20.18;100.00
4972;BME280;2501;51.214;6.768;2023-07-28T08:36:55;100456.53;;;20.21;100.00
4972;BME280;2501;51.214;6.768;2023-07-28T08:39:27;100467.84;;;19.79;100.00
4972;BME280;2501;51.214;6.768;2023-07-28T08:41:58;100469.88;;;19.96;100.00
4972;BME280;2501;51.214;6.768;2023-07-28T08:44:29;100469.28;;;20.36;100.00
4972;BME280;2501;51.214;6.768;2023-07-28T08:46:59;100467.50;;;20.37;100.00
4972;BME280;2501;51.214;6.768;2023-07-28T08:49:28;100478.09;;;20.38;100.00
4972;BME280;2501;51.214;6.768;2023-07-28T08:51:59;100470.56;;;20.93;100.00
4972;BME280;2501;51.214;6.768;2023-07-28T08:54:31;100470.56;;;20.93;97.87
4972;BME280;2501;51.214;6.768;2023-07-28T08:57:00;100475.38;;;20.83;99.03
4972;BME280;2501;51.214;6.768;2023-07-28T08:59:29;100469.81;;;20.90;98.18
4972;BME280;2501;51.214;6.768;2023-07-28T09:01:57;100475.69;;;21.19;96.38
4972;BME280;2501;51.214;6.768;2023-07-28T09:04:27;100476.50;;;21.00;97.45
4972;BME280;2501;51.214;6.768;2023-07-28T09:06:56;100477.38;;;21.42;94.50
4972;BME280;2501;51.214;6.768;2023-07-28T09:09:34;100475.13;;;21.53;93.57
4972;BME280;2501;51.214;6.768;2023-07-28T09:12:04;100475.16;;;21.72;92.34
4972;BME280;2501;51.214;6.768;2023-07-28T09:14:34;100475.63;;;21.82;92.72
4972;BME280;2501;51.214;6.768;2023-07-28T09:17:07;100472.66;;;21.07;94.31
4972;BME280;2501;51.214;6.768;2023-07-28T09:19:49;100470.84;;;21.70;93.76
4972;BME280;2501;51.214;6.768;2023-07-28T09:22:19;100477.00;;;20.88;97.18
4972;BME280;2501;51.214;6.768;2023-07-28T09:24:50;100476.19;;;21.29;96.65
4972;BME280;2501;51.214;6.768;2023-07-28T09:27:20;100473.78;;;21.43;93.58
4972;BME280;2501;51.214;6.768;2023-07-28T09:29:50;100472.38;;;21.55;93.55
4972;BME280;2501;51.214;6.768;2023-07-28T09:32:27;100477.97;;;22.29;88.20
4972;BME280;2501;51.214;6.768;2023-07-28T09:35:08;100480.44;;;21.74;90.27
4972;BME280;2501;51.214;6.768;2023-07-28T09:37:39;100476.09;;;21.71;89.99
4972;BME280;2501;51.214;6.768;2023-07-28T09:40:13;100480.44;;;22.14;89.50
4972;BME280;2501;51.214;6.768;2023-07-28T09:42:43;100486.63;;;22.15;86.03
4972;BME280;2501;51.214;6.768;2023-07-28T09:45:15;100482.75;;;22.02;86.85
4972;BME280;2501;51.214;6.768;2023-07-28T09:47:45;100482.56;;;21.86;86.27
4972;BME280;2501;51.214;6.768;2023-07-28T09:50:15;100473.81;;;22.03;86.04
4972;BME280;2501;51.214;6.768;2023-07-28T09:52:46;100475.09;;;22.33;83.60
4972;BME280;2501;51.214;6.768;2023-07-28T09:55:18;100469.56;;;22.55;83.40
4972;BME280;2501;51.214;6.768;2023-07-28T09:57:52;100465.94;;;22.75;82.56
4972;BME280;2501;51.214;6.768;2023-07-28T10:00:23;100466.84;;;23.29;79.14
4972;BME280;2501;51.214;6.768;2023-07-28T10:02:52;100474.38;;;23.20;79.05
4972;BME280;2501;51.214;6.768;2023-07-28T10:05:21;100478.47;;;22.55;81.46
4972;BME280;2501;51.214;6.768;2023-07-28T10:07:50;100471.38;;;22.92;82.34
4972;BME280;2501;51.214;6.768;2023-07-28T10:10:22;100470.22;;;23.49;77.82
4972;BME280;2501;51.214;6.768;2023-07-28T10:12:53;100470.69;;;23.75;75.37
4972;BME280;2501;51.214;6.768;2023-07-28T10:15:27;100476.34;;;23.53;75.46
4972;BME280;2501;51.214;6.768;2023-07-28T10:17:57;100470.97;;;23.53;75.23
4972;BME280;2501;51.214;6.768;2023-07-28T10:20:27;100469.25;;;22.99;76.55
4972;BME280;2501;51.214;6.768;2023-07-28T10:23:02;100472.13;;;23.65;74.33
4972;BME280;2501;51.214;6.768;2023-07-28T10:25:35;100475.75;;;23.46;74.38
4972;BME280;2501;51.214;6.768;2023-07-28T10:28:05;100480.28;;;23.27;76.39
4972;BME280;2501;51.214;6.768;2023-07-28T10:30:37;100476.78;;;22.90;78.44
4972;BME280;2501;51.214;6.768;2023-07-28T10:33:06;100491.47;;;22.44;82.07
4972;BME280;2501;51.214;6.768;2023-07-28T10:35:35;100488.84;;;22.05;87.58
4972;BME280;2501;51.214;6.768;2023-07-28T10:38:39;100488.13;;;21.61;92.08
4972;BME280;2501;51.214;6.768;2023-07-28T10:41:15;100493.53;;;21.80;93.69
4972;BME280;2501;51.214;6.768;2023-07-28T10:44:01;100487.16;;;21.82;93.47
4972;BME280;2501;51.214;6.768;2023-07-28T10:47:13;100488.81;;;22.26;92.12
4972;BME280;2501;51.214;6.768;2023-07-28T10:49:48;100484.78;;;21.76;93.71
4972;BME280;2501;51.214;6.768;2023-07-28T10:52:16;100495.84;;;22.08;94.36
4972;BME280;2501;51.214;6.768;2023-07-28T10:54:45;100484.19;;;22.29;93.54
4972;BME280;2501;51.214;6.768;2023-07-28T10:57:16;100483.47;;;22.82;90.40
4972;BME280;2501;51.214;6.768;2023-07-28T10:59:44;100484.03;;;23.06;84.42
4972;BME280;2501;51.214;6.768;2023-07-28T11:02:14;100485.28;;;23.86;82.90
4972;BME280;2501;51.214;6.768;2023-07-28T11:04:46;100485.66;;;23.27;82.11
4972;BME280;2501;51.214;6.768;2023-07-28T11:07:15;100485.50;;;23.30;85.43
4972;BME280;2501;51.214;6.768;2023-07-28T11:09:43;100481.81;;;23.84;78.98
4972;BME280;2501;51.214;6.768;2023-07-28T11:12:12;100482.50;;;23.19;82.02
4972;BME280;2501;51.214;6.768;2023-07-28T11:14:45;100473.53;;;23.89;77.95
4972;BME280;2501;51.214;6.768;2023-07-28T11:17:14;100486.09;;;24.04;79.39
4972;BME280;2501;51.214;6.768;2023-07-28T11:19:42;100481.66;;;23.18;82.66
4972;BME280;2501;51.214;6.768;2023-07-28T11:22:11;100476.84;;;24.10;79.52
4972;BME280;2501;51.214;6.768;2023-07-28T11:24:39;100463.09;;;24.96;73.03
4972;BME280;2501;51.214;6.768;2023-07-28T11:27:08;100463.88;;;25.58;69.33
4972;BME280;2501;51.214;6.768;2023-07-28T11:29:36;100467.81;;;25.22;70.55
4972;BME280;2501;51.214;6.768;2023-07-28T11:32:08;100464.72;;;24.98;68.40
4972;BME280;2501;51.214;6.768;2023-07-28T11:34:36;100465.69;;;24.97;68.68
4972;BME280;2501;51.214;6.768;2023-07-28T11:37:07;100459.97;;;24.88;68.48
4972;BME280;2501;51.214;6.768;2023-07-28T11:39:36;100483.63;;;23.32;76.64
4972;BME280;2501;51.214;6.768;2023-07-28T11:42:05;100481.13;;;22.74;83.55
4972;BME280;2501;51.214;6.768;2023-07-28T11:44:35;100489.94;;;21.81;88.52
4972;BME280;2501;51.214;6.768;2023-07-28T11:47:07;100497.06;;;21.18;94.40
4972;BME280;2501;51.214;6.768;2023-07-28T11:49:46;100485.53;;;21.17;97.79
4972;BME280;2501;51.214;6.768;2023-07-28T11:52:14;100483.91;;;21.35;97.70
4972;BME280;2501;51.214;6.768;2023-07-28T11:54:43;100486.69;;;21.93;97.24
4972;BME280;2501;51.214;6.768;2023-07-28T11:57:12;100480.13;;;22.20;93.11
4972;BME280;2501;51.214;6.768;2023-07-28T11:59:41;100473.38;;;22.32;93.20
4972;BME280;2501;51.214;6.768;2023-07-28T12:02:12;100469.66;;;22.53;93.12
4972;BME280;2501;51.214;6.768;2023-07-28T12:04:40;100467.91;;;22.71;88.36
4972;BME280;2501;51.214;6.768;2023-07-28T12:07:14;100465.28;;;22.88;86.30
4972;BME280;2501;51.214;6.768;2023-07-28T12:09:50;100466.13;;;23.25;84.15
4972;BME280;2501;51.214;6.768;2023-07-28T12:12:20;100472.38;;;23.60;82.25
4972;BME280;2501;51.214;6.768;2023-07-28T12:14:49;100468.56;;;24.14;76.97
4972;BME280;2501;51.214;6.768;2023-07-28T12:17:21;100457.13;;;24.91;73.98
4972;BME280;2501;51.214;6.768;2023-07-28T12:20:02;100463.88;;;24.98;72.56
4972;BME280;2501;51.214;6.768;2023-07-28T12:22:36;100454.81;;;26.03;69.72
4972;BME280;2501;51.214;6.768;2023-07-28T12:25:05;100448.63;;;26.58;63.62
4972;BME280;2501;51.214;6.768;2023-07-28T12:27:34;100448.66;;;25.73;64.53
4972;BME280;2501;51.214;6.768;2023-07-28T12:30:04;100455.06;;;25.26;67.27
4972;BME280;2501;51.214;6.768;2023-07-28T12:32:37;100453.22;;;24.65;71.08
4972;BME280;2501;51.214;6.768;2023-07-28T12:35:06;100452.72;;;24.10;73.95
4972;BME280;2501;51.214;6.768;2023-07-28T12:37:35;100453.50;;;24.76;69.78
4972;BME280;2501;51.214;6.768;2023-07-28T12:40:05;100455.13;;;24.63;68.10
4972;BME280;2501;51.214;6.768;2023-07-28T12:42:33;100466.31;;;24.40;68.76
4972;BME280;2501;51.214;6.768;2023-07-28T12:45:03;100479.13;;;24.17;69.58
4972;BME280;2501;51.214;6.768;2023-07-28T12:47:32;100464.44;;;24.24;71.29
4972;BME280;2501;51.214;6.768;2023-07-28T12:50:03;100471.91;;;24.02;72.21
4972;BME280;2501;51.214;6.768;2023-07-28T12:52:32;100473.91;;;24.14;72.38
4972;BME280;2501;51.214;6.768;2023-07-28T12:55:00;100475.50;;;23.85;74.18
4972;BME280;2501;51.214;6.768;2023-07-28T12:57:29;100479.94;;;23.52;74.74
4972;BME280;2501;51.214;6.768;2023-07-28T12:59:57;100472.41;;;24.42;73.06
4972;BME280;2501;51.214;6.768;2023-07-28T13:02:25;100483.47;;;23.70;74.27
4972;BME280;2501;51.214;6.768;2023-07-28T13:04:54;100488.81;;;23.18;76.48
4972;BME280;2501;51.214;6.768;2023-07-28T13:07:25;100495.69;;;23.05;84.65
4972;BME280;2501;51.214;6.768;2023-07-28T13:09:55;100510.94;;;21.68;94.68
4972;BME280;2501;51.214;6.768;2023-07-28T13:12:23;100505.63;;;20.82;100.00
4972;BME280;2501;51.214;6.768;2023-07-28T13:14:52;100512.69;;;20.83;100.00
4972;BME280;2501;51.214;6.768;2023-07-28T13:17:20;100514.25;;;20.89;100.00